sensor_id;sensor_type;location;lat;lon;timestamp;pressure;altitude;pressure_sealevel;temperature;humidity
64632;BME280;58358;50.936;0.246;2023-09-08T00:01:50;101061.88;;;17.35;80.93
64632;BME280;58358;50.936;0.246;2023-09-08T00:04:16;101060.02;;;16.99;82.03
64632;BME280;58358;50.936;0.246;2023-09-08T00:06:42;101053.70;;;17.92;76.20
64632;BME280;58358;50.936;0.246;2023-09-08T00:09:08;101049.52;;;18.41;74.91
64632;BME280;58358;50.936;0.246;2023-09-08T00:11:33;101052.19;;;18.50;73.12
64632;BME280;58358;50.936;0.246;2023-09-08T00:13:59;101056.81;;;17.89;75.78
64632;BME280;58358;50.936;0.246;2023-09-08T00:16:24;101058.73;;;18.28;74.87
64632;BME280;58358;50.936;0.246;2023-09-08T00:18:50;101054.72;;;18.41;74.38
64632;BME280;58358;50.936;0.246;2023-09-08T00:21:15;101058.05;;;18.85;73.06
64632;BME280;58358;50.936;0.246;2023-09-08T00:23:41;101057.17;;;18.86;72.62
64632;BME280;58358;50.936;0.246;2023-09-08T00:26:06;101056.95;;;18.91;72.80
64632;BME280;58358;50.936;0.246;2023-09-08T00:28:32;101055.63;;;18.67;73.87
64632;BME280;58358;50.936;0.246;2023-09-08T00:30:59;101062.87;;;17.79;74.66
64632;BME280;58358;50.936;0.246;2023-09-08T00:33:24;101057.16;;;18.47;73.68
64632;BME280;58358;50.936;0.246;2023-09-08T00:35:49;101058.68;;;18.81;73.18
64632;BME280;58358;50.936;0.246;2023-09-08T00:38:15;101058.00;;;18.93;71.69
64632;BME280;58358;50.936;0.246;2023-09-08T00:40:40;101050.99;;;18.44;71.47
64632;BME280;58358;50.936;0.246;2023-09-08T00:43:06;101049.60;;;17.96;72.65
64632;BME280;58358;50.936;0.246;2023-09-08T00:45:33;101050.55;;;18.98;72.05
64632;BME280;58358;50.936;0.246;2023-09-08T00:47:57;101047.85;;;18.49;72.10
64632;BME280;58358;50.936;0.246;2023-09-08T00:50:23;101039.98;;;18.12;74.21
64632;BME280;58358;50.936;0.246;2023-09-08T00:52:49;101042.92;;;17.61;76.61
64632;BME280;58358;50.936;0.246;2023-09-08T00:55:14;101041.75;;;17.92;75.71
64632;BME280;58358;50.936;0.246;2023-09-08T00:57:39;101041.67;;;19.35;70.95
64632;BME280;58358;50.936;0.246;2023-09-08T01:00:05;101039.65;;;18.61;71.37
64632;BME280;58358;50.936;0.246;2023-09-08T01:02:29;101042.18;;;18.59;72.00
64632;BME280;58358;50.936;0.246;2023-09-08T01:04:55;101040.29;;;18.86;73.23
64632;BME280;58358;50.936;0.246;2023-09-08T01:07:20;101039.15;;;18.37;74.00
64632;BME280;58358;50.936;0.246;2023-09-08T01:09:46;101033.30;;;18.77;72.56
64632;BME280;58358;50.936;0.246;2023-09-08T01:12:11;101032.85;;;18.49;71.77
64632;BME280;58358;50.936;0.246;2023-09-08T01:14:36;101030.52;;;18.09;74.99
64632;BME280;58358;50.936;0.246;2023-09-08T01:17:02;101034.98;;;18.11;74.05
64632;BME280;58358;50.936;0.246;2023-09-08T01:19:27;101032.37;;;19.34;70.98
64632;BME280;58358;50.936;0.246;2023-09-08T01:22:09;101032.91;;;18.15;73.31
64632;BME280;58358;50.936;0.246;2023-09-08T01:24:31;101033.48;;;17.35;78.87
64632;BME280;58358;50.936;0.246;2023-09-08T01:26:44;101031.95;;;18.61;74.21
64632;BME280;58358;50.936;0.246;2023-09-08T01:29:09;101037.21;;;17.17;77.31
64632;BME280;58358;50.936;0.246;2023-09-08T01:31:35;101036.20;;;17.98;75.89
64632;BME280;58358;50.936;0.246;2023-09-08T01:34:00;101035.50;;;18.08;73.93
64632;BME280;58358;50.936;0.246;2023-09-08T01:36:25;101032.30;;;19.52;69.69
64632;BME280;58358;50.936;0.246;2023-09-08T01:38:51;101030.17;;;19.65;69.38
64632;BME280;58358;50.936;0.246;2023-09-08T01:41:16;101032.44;;;18.71;72.54
64632;BME280;58358;50.936;0.246;2023-09-08T01:43:42;101034.06;;;19.49;71.46
64632;BME280;58358;50.936;0.246;2023-09-08T01:46:07;101030.32;;;19.32;71.26
64632;BME280;58358;50.936;0.246;2023-09-08T01:48:33;101024.07;;;19.14;71.33
64632;BME280;58358;50.936;0.246;2023-09-08T01:50:59;101022.90;;;18.97;71.07
64632;BME280;58358;50.936;0.246;2023-09-08T01:53:23;101023.19;;;18.55;73.44
64632;BME280;58358;50.936;0.246;2023-09-08T01:55:49;101025.76;;;17.74;79.61
64632;BME280;58358;50.936;0.246;2023-09-08T01:58:14;101019.93;;;19.25;73.64
64632;BME280;58358;50.936;0.246;2023-09-08T02:00:40;101018.24;;;18.57;76.19
64632;BME280;58358;50.936;0.246;2023-09-08T02:03:05;101017.03;;;18.93;73.52
64632;BME280;58358;50.936;0.246;2023-09-08T02:05:31;101008.32;;;19.47;71.89
64632;BME280;58358;50.936;0.246;2023-09-08T02:07:57;101006.62;;;19.99;70.71
64632;BME280;58358;50.936;0.246;2023-09-08T02:10:21;101007.30;;;17.89;77.33
64632;BME280;58358;50.936;0.246;2023-09-08T02:12:46;101012.40;;;17.33;81.63
64632;BME280;58358;50.936;0.246;2023-09-08T02:15:12;101012.16;;;19.53;73.87
64632;BME280;58358;50.936;0.246;2023-09-08T02:17:38;101015.27;;;19.30;73.22
64632;BME280;58358;50.936;0.246;2023-09-08T02:20:03;101015.29;;;18.90;73.94
64632;BME280;58358;50.936;0.246;2023-09-08T02:22:28;101017.20;;;17.27;82.72
64632;BME280;58358;50.936;0.246;2023-09-08T02:24:54;101018.51;;;17.04;84.93
64632;BME280;58358;50.936;0.246;2023-09-08T02:27:19;101017.03;;;17.05;84.48
64632;BME280;58358;50.936;0.246;2023-09-08T02:29:45;101009.41;;;18.53;79.30
64632;BME280;58358;50.936;0.246;2023-09-08T02:32:10;101006.88;;;19.34;74.19
64632;BME280;58358;50.936;0.246;2023-09-08T02:34:35;101011.73;;;16.92;84.63
64632;BME280;58358;50.936;0.246;2023-09-08T02:37:01;101008.58;;;18.12;78.17
64632;BME280;58358;50.936;0.246;2023-09-08T02:39:26;101005.96;;;18.25;77.56
64632;BME280;58358;50.936;0.246;2023-09-08T02:41:51;101004.70;;;19.25;76.02
64632;BME280;58358;50.936;0.246;2023-09-08T02:44:17;101006.44;;;18.70;77.17
64632;BME280;58358;50.936;0.246;2023-09-08T02:46:42;101008.05;;;18.82;76.79
64632;BME280;58358;50.936;0.246;2023-09-08T02:49:08;101009.28;;;19.41;73.29
64632;BME280;58358;50.936;0.246;2023-09-08T02:51:33;101010.73;;;19.10;74.23
64632;BME280;58358;50.936;0.246;2023-09-08T02:53:59;101011.45;;;19.21;72.09
64632;BME280;58358;50.936;0.246;2023-09-08T02:56:25;101007.95;;;19.70;71.31
64632;BME280;58358;50.936;0.246;2023-09-08T02:58:50;101007.44;;;19.29;73.55
64632;BME280;58358;50.936;0.246;2023-09-08T03:01:17;101008.09;;;19.16;74.48
64632;BME280;58358;50.936;0.246;2023-09-08T03:03:41;101010.48;;;19.91;70.58
64632;BME280;58358;50.936;0.246;2023-09-08T03:06:07;101009.93;;;19.79;70.38
64632;BME280;58358;50.936;0.246;2023-09-08T03:08:32;101012.52;;;19.99;69.80
64632;BME280;58358;50.936;0.246;2023-09-08T03:10:59;101013.77;;;19.79;68.79
64632;BME280;58358;50.936;0.246;2023-09-08T03:13:23;101016.92;;;19.57;71.01
64632;BME280;58358;50.936;0.246;2023-09-08T03:15:49;101024.82;;;19.37;71.62
64632;BME280;58358;50.936;0.246;2023-09-08T03:18:14;101028.39;;;19.08;72.35
64632;BME280;58358;50.936;0.246;2023-09-08T03:20:40;101024.75;;;19.54;71.18
64632;BME280;58358;50.936;0.246;2023-09-08T03:23:05;101022.51;;;19.48;70.81
64632;BME280;58358;50.936;0.246;2023-09-08T03:25:30;101017.87;;;19.45;71.37
64632;BME280;58358;50.936;0.246;2023-09-08T03:27:56;101017.43;;;19.67;70.75
64632;BME280;58358;50.936;0.246;2023-09-08T03:30:21;101022.82;;;18.97;72.34
64632;BME280;58358;50.936;0.246;2023-09-08T03:32:47;101027.21;;;19.60;70.45
64632;BME280;58358;50.936;0.246;2023-09-08T03:35:12;101024.38;;;19.14;71.70
64632;BME280;58358;50.936;0.246;2023-09-08T03:37:38;101021.49;;;17.36;77.67
64632;BME280;58358;50.936;0.246;2023-09-08T03:40:05;101019.16;;;17.53;81.29
64632;BME280;58358;50.936;0.246;2023-09-08T03:42:29;101019.04;;;18.33;78.20
64632;BME280;58358;50.936;0.246;2023-09-08T03:44:56;101016.42;;;18.60;76.73
64632;BME280;58358;50.936;0.246;2023-09-08T03:47:20;101015.97;;;19.05;74.29
64632;BME280;58358;50.936;0.246;2023-09-08T03:49:46;101020.22;;;17.36;82.10
64632;BME280;58358;50.936;0.246;2023-09-08T03:52:11;101016.38;;;16.99;81.59
64632;BME280;58358;50.936;0.246;2023-09-08T03:54:37;101005.90;;;18.28;78.37
64632;BME280;58358;50.936;0.246;2023-09-08T03:57:02;101011.16;;;17.24;79.98
64632;BME280;58358;50.936;0.246;2023-09-08T03:59:28;101011.25;;;17.90;78.00
64632;BME280;58358;50.936;0.246;2023-09-08T04:01:54;101015.75;;;18.97;76.38
64632;BME280;58358;50.936;0.246;2023-09-08T04:04:19;101020.38;;;19.04;74.57
64632;BME280;58358;50.936;0.246;2023-09-08T04:06:45;101020.16;;;17.99;78.28
64632;BME280;58358;50.936;0.246;2023-09-08T04:09:10;101016.77;;;18.15;78.22
64632;BME280;58358;50.936;0.246;2023-09-08T04:11:36;101011.51;;;18.90;76.01
64632;BME280;58358;50.936;0.246;2023-09-08T04:14:01;101008.25;;;18.75;75.07
64632;BME280;58358;50.936;0.246;2023-09-08T04:16:28;101007.37;;;18.28;77.21
64632;BME280;58358;50.936;0.246;2023-09-08T04:18:52;101018.22;;;17.29;83.56
64632;BME280;58358;50.936;0.246;2023-09-08T04:21:17;101019.73;;;17.14;84.89
64632;BME280;58358;50.936;0.246;2023-09-08T04:23:43;101020.65;;;18.69;78.36
64632;BME280;58358;50.936;0.246;2023-09-08T04:26:09;101016.14;;;18.72;76.08
64632;BME280;58358;50.936;0.246;2023-09-08T04:28:34;101006.49;;;18.74;75.62
64632;BME280;58358;50.936;0.246;2023-09-08T04:31:00;101014.94;;;16.99;81.07
64632;BME280;58358;50.936;0.246;2023-09-08T04:33:26;101020.25;;;18.01;80.51
64632;BME280;58358;50.936;0.246;2023-09-08T04:35:51;101025.13;;;17.65;79.98
64632;BME280;58358;50.936;0.246;2023-09-08T04:38:17;101028.55;;;17.24;82.30
64632;BME280;58358;50.936;0.246;2023-09-08T04:40:45;101034.12;;;18.14;80.34
64632;BME280;58358;50.936;0.246;2023-09-08T04:43:08;101030.55;;;18.42;78.82
64632;BME280;58358;50.936;0.246;2023-09-08T04:45:33;101033.73;;;18.00;79.69
64632;BME280;58358;50.936;0.246;2023-09-08T04:47:59;101026.64;;;18.29;77.36
64632;BME280;58358;50.936;0.246;2023-09-08T04:50:24;101022.30;;;18.76;76.25
64632;BME280;58358;50.936;0.246;2023-09-08T04:52:49;101028.79;;;17.44;79.50
64632;BME280;58358;50.936;0.246;2023-09-08T04:55:15;101035.61;;;16.63;84.57
64632;BME280;58358;50.936;0.246;2023-09-08T04:57:40;101040.97;;;17.32;84.65
64632;BME280;58358;50.936;0.246;2023-09-08T05:00:07;101038.87;;;17.83;80.54
64632;BME280;58358;50.936;0.246;2023-09-08T05:02:31;101036.39;;;18.92;76.27
64632;BME280;58358;50.936;0.246;2023-09-08T05:04:57;101036.45;;;18.50;77.75
64632;BME280;58358;50.936;0.246;2023-09-08T05:07:22;101036.04;;;18.73;75.65
64632;BME280;58358;50.936;0.246;2023-09-08T05:09:48;101037.10;;;18.00;77.25
64632;BME280;58358;50.936;0.246;2023-09-08T05:12:14;101036.58;;;18.86;74.16
64632;BME280;58358;50.936;0.246;2023-09-08T05:14:39;101031.95;;;18.82;74.60
64632;BME280;58358;50.936;0.246;2023-09-08T05:17:04;101037.72;;;17.10;79.87
64632;BME280;58358;50.936;0.246;2023-09-08T05:19:30;101038.31;;;18.55;78.29
64632;BME280;58358;50.936;0.246;2023-09-08T05:21:56;101045.71;;;17.80;78.42
64632;BME280;58358;50.936;0.246;2023-09-08T05:24:21;101046.53;;;17.10;84.52
64632;BME280;58358;50.936;0.246;2023-09-08T05:26:47;101046.41;;;17.75;80.78
64632;BME280;58358;50.936;0.246;2023-09-08T05:29:12;101046.79;;;16.26;86.82
64632;BME280;58358;50.936;0.246;2023-09-08T05:31:38;101047.53;;;16.93;85.69
64632;BME280;58358;50.936;0.246;2023-09-08T05:34:02;101046.46;;;17.35;81.92
64632;BME280;58358;50.936;0.246;2023-09-08T05:36:28;101047.99;;;16.22;86.24
64632;BME280;58358;50.936;0.246;2023-09-08T05:38:54;101047.99;;;18.00;81.93
64632;BME280;58358;50.936;0.246;2023-09-08T05:41:19;101043.65;;;17.69;81.93
64632;BME280;58358;50.936;0.246;2023-09-08T05:43:45;101043.49;;;17.78;81.14
64632;BME280;58358;50.936;0.246;2023-09-08T05:46:10;101042.85;;;16.50;86.01
64632;BME280;58358;50.936;0.246;2023-09-08T05:48:35;101047.63;;;17.65;83.04
64632;BME280;58358;50.936;0.246;2023-09-08T05:51:01;101044.06;;;17.84;79.97
64632;BME280;58358;50.936;0.246;2023-09-08T05:53:26;101044.00;;;17.92;80.57
64632;BME280;58358;50.936;0.246;2023-09-08T05:55:52;101040.26;;;17.53;85.84
64632;BME280;58358;50.936;0.246;2023-09-08T05:58:18;101044.37;;;17.38;85.67
64632;BME280;58358;50.936;0.246;2023-09-08T06:00:43;101047.01;;;18.26;82.59
64632;BME280;58358;50.936;0.246;2023-09-08T06:03:09;101049.75;;;18.44;80.09
64632;BME280;58358;50.936;0.246;2023-09-08T06:05:34;101049.99;;;18.62;79.47
64632;BME280;58358;50.936;0.246;2023-09-08T06:08:00;101053.04;;;18.04;84.82
64632;BME280;58358;50.936;0.246;2023-09-08T06:10:25;101051.87;;;18.80;80.04
64632;BME280;58358;50.936;0.246;2023-09-08T06:12:51;101054.37;;;18.82;78.54
64632;BME280;58358;50.936;0.246;2023-09-08T06:15:16;101060.68;;;16.63;88.44
64632;BME280;58358;50.936;0.246;2023-09-08T06:17:42;101051.81;;;18.27;83.24
64632;BME280;58358;50.936;0.246;2023-09-08T06:20:08;101053.63;;;17.63;84.65
64632;BME280;58358;50.936;0.246;2023-09-08T06:22:32;101056.17;;;17.46;87.55
64632;BME280;58358;50.936;0.246;2023-09-08T06:24:58;101054.91;;;18.58;83.63
64632;BME280;58358;50.936;0.246;2023-09-08T06:27:22;101059.76;;;19.58;78.76
64632;BME280;58358;50.936;0.246;2023-09-08T06:29:48;101064.11;;;20.14;76.78
64632;BME280;58358;50.936;0.246;2023-09-08T06:32:13;101070.04;;;20.86;75.04
64632;BME280;58358;50.936;0.246;2023-09-08T06:34:39;101067.26;;;20.78;72.73
64632;BME280;58358;50.936;0.246;2023-09-08T06:37:04;101066.38;;;20.55;73.44
64632;BME280;58358;50.936;0.246;2023-09-08T06:39:30;101069.61;;;20.07;75.24
64632;BME280;58358;50.936;0.246;2023-09-08T06:41:56;101070.76;;;20.21;76.30
64632;BME280;58358;50.936;0.246;2023-09-08T06:44:21;101072.57;;;20.49;75.16
64632;BME280;58358;50.936;0.246;2023-09-08T06:46:46;101070.50;;;19.50;77.79
64632;BME280;58358;50.936;0.246;2023-09-08T06:49:12;101069.00;;;19.97;81.10
64632;BME280;58358;50.936;0.246;2023-09-08T06:51:38;101068.45;;;21.03;74.89
64632;BME280;58358;50.936;0.246;2023-09-08T06:54:03;101070.28;;;20.63;75.24
64632;BME280;58358;50.936;0.246;2023-09-08T06:56:28;101072.06;;;19.14;82.20
64632;BME280;58358;50.936;0.246;2023-09-08T06:58:54;101075.12;;;20.13;80.67
64632;BME280;58358;50.936;0.246;2023-09-08T07:01:19;101080.33;;;19.62;82.69
64632;BME280;58358;50.936;0.246;2023-09-08T07:03:45;101083.92;;;20.56;79.11
64632;BME280;58358;50.936;0.246;2023-09-08T07:06:11;101083.51;;;20.70;77.03
64632;BME280;58358;50.936;0.246;2023-09-08T07:08:36;101077.50;;;20.70;80.32
64632;BME280;58358;50.936;0.246;2023-09-08T07:11:02;101078.14;;;19.07;83.87
64632;BME280;58358;50.936;0.246;2023-09-08T07:13:27;101081.28;;;20.24;80.29
64632;BME280;58358;50.936;0.246;2023-09-08T07:15:53;101085.95;;;21.78;76.46
64632;BME280;58358;50.936;0.246;2023-09-08T07:18:18;101084.00;;;22.40;72.94
64632;BME280;58358;50.936;0.246;2023-09-08T07:20:46;101088.58;;;23.02;70.78
64632;BME280;58358;50.936;0.246;2023-09-08T07:23:09;101090.66;;;22.38;71.59
64632;BME280;58358;50.936;0.246;2023-09-08T07:25:35;101088.36;;;23.37;68.11
64632;BME280;58358;50.936;0.246;2023-09-08T07:28:01;101086.53;;;22.49;68.64
64632;BME280;58358;50.936;0.246;2023-09-08T07:30:26;101094.15;;;22.74;71.41
64632;BME280;58358;50.936;0.246;2023-09-08T07:32:52;101089.70;;;23.14;70.25
64632;BME280;58358;50.936;0.246;2023-09-08T07:35:18;101084.84;;;23.58;67.65
64632;BME280;58358;50.936;0.246;2023-09-08T07:37:43;101084.09;;;24.57;67.76
64632;BME280;58358;50.936;0.246;2023-09-08T07:40:10;101086.63;;;24.19;67.04
64632;BME280;58358;50.936;0.246;2023-09-08T07:42:34;101088.70;;;23.37;70.11
64632;BME280;58358;50.936;0.246;2023-09-08T07:45:00;101095.30;;;23.69;66.59
64632;BME280;58358;50.936;0.246;2023-09-08T07:47:25;101096.62;;;24.10;67.44
64632;BME280;58358;50.936;0.246;2023-09-08T07:49:50;101092.61;;;24.73;65.43
64632;BME280;58358;50.936;0.246;2023-09-08T07:52:16;101091.68;;;25.00;67.23
64632;BME280;58358;50.936;0.246;2023-09-08T07:54:41;101093.78;;;24.71;68.20
64632;BME280;58358;50.936;0.246;2023-09-08T07:57:06;101097.41;;;24.90;68.51
64632;BME280;58358;50.936;0.246;2023-09-08T07:59:32;101098.05;;;24.75;68.03
64632;BME280;58358;50.936;0.246;2023-09-08T08:01:57;101102.48;;;26.68;58.90
64632;BME280;58358;50.936;0.246;2023-09-08T08:04:23;101100.60;;;25.73;60.07
64632;BME280;58358;50.936;0.246;2023-09-08T08:06:49;101100.04;;;26.28;57.46
64632;BME280;58358;50.936;0.246;2023-09-08T08:09:14;101099.67;;;24.26;63.33
64632;BME280;58358;50.936;0.246;2023-09-08T08:11:40;101098.76;;;23.37;67.83
64632;BME280;58358;50.936;0.246;2023-09-08T08:14:05;101100.00;;;25.32;60.23
64632;BME280;58358;50.936;0.246;2023-09-08T08:16:31;101097.91;;;26.49;57.39
64632;BME280;58358;50.936;0.246;2023-09-08T08:18:57;101096.15;;;26.57;55.69
64632;BME280;58358;50.936;0.246;2023-09-08T08:21:22;101093.54;;;26.13;56.48
64632;BME280;58358;50.936;0.246;2023-09-08T08:23:47;101097.87;;;26.42;55.64
64632;BME280;58358;50.936;0.246;2023-09-08T08:26:13;101096.96;;;25.52;58.50
64632;BME280;58358;50.936;0.246;2023-09-08T08:28:38;101099.06;;;27.52;54.88
64632;BME280;58358;50.936;0.246;2023-09-08T08:31:04;101095.68;;;27.99;54.10
64632;BME280;58358;50.936;0.246;2023-09-08T08:33:29;101100.47;;;27.34;55.73
64632;BME280;58358;50.936;0.246;2023-09-08T08:35:55;101106.81;;;26.63;55.98
64632;BME280;58358;50.936;0.246;2023-09-08T08:38:20;101111.96;;;26.44;55.94
64632;BME280;58358;50.936;0.246;2023-09-08T08:40:46;101117.61;;;26.99;55.87
64632;BME280;58358;50.936;0.246;2023-09-08T08:43:12;101119.68;;;27.52;55.06
64632;BME280;58358;50.936;0.246;2023-09-08T08:45:37;101117.70;;;27.97;53.82
64632;BME280;58358;50.936;0.246;2023-09-08T08:48:03;101126.77;;;26.33;57.56
64632;BME280;58358;50.936;0.246;2023-09-08T08:50:28;101128.29;;;27.26;54.64
64632;BME280;58358;50.936;0.246;2023-09-08T08:52:53;101131.46;;;27.25;54.84
64632;BME280;58358;50.936;0.246;2023-09-08T08:55:19;101125.00;;;27.61;53.44
64632;BME280;58358;50.936;0.246;2023-09-08T08:57:44;101128.19;;;27.55;55.46
64632;BME280;58358;50.936;0.246;2023-09-08T09:00:12;101129.29;;;26.62;57.16
64632;BME280;58358;50.936;0.246;2023-09-08T09:02:36;101129.42;;;26.50;57.72
64632;BME280;58358;50.936;0.246;2023-09-08T09:05:01;101129.51;;;27.56;55.26
64632;BME280;58358;50.936;0.246;2023-09-08T09:07:27;101128.66;;;27.90;53.98
64632;BME280;58358;50.936;0.246;2023-09-08T09:09:53;101128.49;;;27.72;54.34
64632;BME280;58358;50.936;0.246;2023-09-08T09:12:18;101127.44;;;27.21;55.15
64632;BME280;58358;50.936;0.246;2023-09-08T09:14:45;101127.78;;;26.58;56.36
64632;BME280;58358;50.936;0.246;2023-09-08T09:17:10;101126.33;;;26.22;57.22
64632;BME280;58358;50.936;0.246;2023-09-08T09:19:34;101126.82;;;27.02;55.01
64632;BME280;58358;50.936;0.246;2023-09-08T09:22:00;101131.91;;;26.70;55.97
64632;BME280;58358;50.936;0.246;2023-09-08T09:24:31;101134.92;;;26.94;56.01
64632;BME280;58358;50.936;0.246;2023-09-08T09:26:52;101134.53;;;27.13;55.54
64632;BME280;58358;50.936;0.246;2023-09-08T09:29:16;101130.22;;;28.95;50.75
64632;BME280;58358;50.936;0.246;2023-09-08T09:31:51;101126.76;;;28.05;52.11
64632;BME280;58358;50.936;0.246;2023-09-08T09:34:07;101130.67;;;27.48;53.34
64632;BME280;58358;50.936;0.246;2023-09-08T09:36:32;101128.78;;;28.11;51.57
64632;BME280;58358;50.936;0.246;2023-09-08T09:38:59;101133.66;;;27.88;49.30
64632;BME280;58358;50.936;0.246;2023-09-08T09:41:23;101133.82;;;29.03;47.29
64632;BME280;58358;50.936;0.246;2023-09-08T09:43:48;101127.69;;;28.60;47.47
64632;BME280;58358;50.936;0.246;2023-09-08T09:46:15;101128.31;;;28.64;46.53
64632;BME280;58358;50.936;0.246;2023-09-08T09:48:39;101129.13;;;27.35;47.83
64632;BME280;58358;50.936;0.246;2023-09-08T09:51:15;101133.08;;;28.13;47.31
64632;BME280;58358;50.936;0.246;2023-09-08T09:53:30;101135.86;;;28.61;45.91
64632;BME280;58358;50.936;0.246;2023-09-08T09:55:56;101137.73;;;29.66;44.69
64632;BME280;58358;50.936;0.246;2023-09-08T09:58:22;101136.82;;;28.71;46.58
64632;BME280;58358;50.936;0.246;2023-09-08T10:00:46;101138.35;;;29.37;46.49
64632;BME280;58358;50.936;0.246;2023-09-08T10:03:11;101137.27;;;29.37;43.11
64632;BME280;58358;50.936;0.246;2023-09-08T10:05:37;101135.31;;;30.10;40.76
64632;BME280;58358;50.936;0.246;2023-09-08T10:08:02;101131.64;;;29.90;41.33
64632;BME280;58358;50.936;0.246;2023-09-08T10:10:29;101126.40;;;29.89;41.85
64632;BME280;58358;50.936;0.246;2023-09-08T10:12:55;101124.20;;;29.18;41.26
64632;BME280;58358;50.936;0.246;2023-09-08T10:15:21;101132.09;;;29.69;40.91
64632;BME280;58358;50.936;0.246;2023-09-08T10:17:44;101136.19;;;29.42;43.23
64632;BME280;58358;50.936;0.246;2023-09-08T10:20:10;101135.36;;;28.23;46.93
64632;BME280;58358;50.936;0.246;2023-09-08T10:22:38;101134.34;;;28.78;45.22
64632;BME280;58358;50.936;0.246;2023-09-08T10:25:05;101137.03;;;29.15;45.58
64632;BME280;58358;50.936;0.246;2023-09-08T10:27:27;101133.50;;;28.72;46.09
64632;BME280;58358;50.936;0.246;2023-09-08T10:29:52;101132.52;;;28.08;48.19
64632;BME280;58358;50.936;0.246;2023-09-08T10:32:17;101134.61;;;28.93;47.48
64632;BME280;58358;50.936;0.246;2023-09-08T10:34:43;101139.59;;;29.75;46.31
64632;BME280;58358;50.936;0.246;2023-09-08T10:37:18;101139.68;;;28.94;46.38
64632;BME280;58358;50.936;0.246;2023-09-08T10:39:34;101143.40;;;27.87;48.00
64632;BME280;58358;50.936;0.246;2023-09-08T10:44:24;101142.22;;;28.53;46.06
64632;BME280;58358;50.936;0.246;2023-09-08T10:46:50;101139.33;;;28.87;45.81
64632;BME280;58358;50.936;0.246;2023-09-08T10:49:14;101139.20;;;29.85;43.37
64632;BME280;58358;50.936;0.246;2023-09-08T10:51:40;101135.73;;;29.04;44.14
64632;BME280;58358;50.936;0.246;2023-09-08T10:54:06;101135.19;;;28.41;45.61
64632;BME280;58358;50.936;0.246;2023-09-08T10:59:01;101137.47;;;29.48;42.84
64632;BME280;58358;50.936;0.246;2023-09-08T11:01:22;101134.09;;;29.60;42.59
64632;BME280;58358;50.936;0.246;2023-09-08T11:03:47;101135.13;;;29.23;44.10
64632;BME280;58358;50.936;0.246;2023-09-08T11:06:15;101137.66;;;28.57;41.60
64632;BME280;58358;50.936;0.246;2023-09-08T11:08:40;101137.33;;;28.59;43.56
64632;BME280;58358;50.936;0.246;2023-09-08T11:11:06;101135.67;;;28.31;43.22
64632;BME280;58358;50.936;0.246;2023-09-08T11:13:28;101135.50;;;29.70;40.67
64632;BME280;58358;50.936;0.246;2023-09-08T11:15:54;101135.27;;;29.94;40.06
64632;BME280;58358;50.936;0.246;2023-09-08T11:18:25;101133.31;;;29.88;39.31
64632;BME280;58358;50.936;0.246;2023-09-08T11:20:45;101130.84;;;27.98;41.65
64632;BME280;58358;50.936;0.246;2023-09-08T11:23:11;101131.52;;;29.22;40.83
64632;BME280;58358;50.936;0.246;2023-09-08T11:25:36;101130.36;;;29.71;41.13
64632;BME280;58358;50.936;0.246;2023-09-08T11:28:02;101130.49;;;28.27;42.11
64632;BME280;58358;50.936;0.246;2023-09-08T11:30:27;101132.49;;;28.93;41.57
64632;BME280;58358;50.936;0.246;2023-09-08T11:32:53;101129.51;;;30.04;39.77
64632;BME280;58358;50.936;0.246;2023-09-08T11:35:18;101131.28;;;29.96;38.18
64632;BME280;58358;50.936;0.246;2023-09-08T11:37:44;101126.49;;;30.18;38.00
64632;BME280;58358;50.936;0.246;2023-09-08T11:40:10;101124.56;;;28.39;40.85
64632;BME280;58358;50.936;0.246;2023-09-08T11:42:36;101123.67;;;30.03;39.46
64632;BME280;58358;50.936;0.246;2023-09-08T11:45:00;101126.14;;;30.91;38.46
64632;BME280;58358;50.936;0.246;2023-09-08T11:47:25;101121.32;;;29.21;39.92
64632;BME280;58358;50.936;0.246;2023-09-08T11:49:52;101117.76;;;30.62;38.02
64632;BME280;58358;50.936;0.246;2023-09-08T11:52:16;101116.94;;;31.30;37.06
64632;BME280;58358;50.936;0.246;2023-09-08T11:54:42;101113.43;;;31.13;36.32
64632;BME280;58358;50.936;0.246;2023-09-08T11:57:07;101109.49;;;31.15;35.47
64632;BME280;58358;50.936;0.246;2023-09-08T11:59:34;101112.13;;;31.22;37.25
64632;BME280;58358;50.936;0.246;2023-09-08T12:01:58;101112.73;;;30.55;36.29
64632;BME280;58358;50.936;0.246;2023-09-08T12:04:23;101112.33;;;30.81;36.98
64632;BME280;58358;50.936;0.246;2023-09-08T12:06:51;101113.14;;;30.81;36.99
64632;BME280;58358;50.936;0.246;2023-09-08T12:09:14;101113.00;;;31.60;35.99
64632;BME280;58358;50.936;0.246;2023-09-08T12:11:40;101112.38;;;31.64;34.78
64632;BME280;58358;50.936;0.246;2023-09-08T12:14:07;101112.98;;;31.50;36.05
64632;BME280;58358;50.936;0.246;2023-09-08T12:16:31;101113.37;;;32.04;35.81
64632;BME280;58358;50.936;0.246;2023-09-08T12:18:57;101109.83;;;31.68;35.83
64632;BME280;58358;50.936;0.246;2023-09-08T12:21:22;101104.92;;;30.31;37.58
64632;BME280;58358;50.936;0.246;2023-09-08T12:23:48;101109.09;;;31.54;36.76
64632;BME280;58358;50.936;0.246;2023-09-08T12:26:13;101103.88;;;29.98;38.41
64632;BME280;58358;50.936;0.246;2023-09-08T12:28:39;101104.47;;;29.91;38.77
64632;BME280;58358;50.936;0.246;2023-09-08T12:31:07;101110.34;;;30.78;37.06
64632;BME280;58358;50.936;0.246;2023-09-08T12:33:29;101107.45;;;32.31;35.50
64632;BME280;58358;50.936;0.246;2023-09-08T12:35:56;101108.02;;;31.50;36.39
64632;BME280;58358;50.936;0.246;2023-09-08T12:38:21;101107.15;;;31.09;37.24
64632;BME280;58358;50.936;0.246;2023-09-08T12:40:46;101104.18;;;31.53;35.36
64632;BME280;58358;50.936;0.246;2023-09-08T12:43:12;101099.37;;;32.19;34.75
64632;BME280;58358;50.936;0.246;2023-09-08T12:45:37;101093.85;;;32.53;33.31